createdAt,value
2019-02-26T00:07:53.277Z,24.4
2019-02-26T00:17:51.304Z,22.2
2019-02-26T00:27:51.796Z,23
2019-02-26T00:37:51.090Z,24.2
2019-02-26T00:47:48.455Z,22.6
2019-02-26T00:57:47.621Z,22.4
2019-02-26T01:07:49.285Z,23.6
2019-02-26T01:17:46.025Z,23.5
2019-02-26T01:27:45.980Z,24.3
2019-02-26T01:37:44.427Z,24.1
2019-02-26T01:47:46.101Z,22.2
2019-02-26T01:57:43.711Z,23
2019-02-26T02:07:44.141Z,24
2019-02-26T02:17:41.231Z,22.6
2019-02-26T02:27:40.431Z,22.8
2019-02-26T02:37:39.632Z,23.9
2019-02-26T02:47:38.896Z,22.8
2019-02-26T02:57:38.035Z,22.4
2019-02-26T03:07:37.236Z,23.1
2019-02-26T03:17:36.438Z,23.5
2019-02-26T03:27:36.808Z,24.3
2019-02-26T03:37:36.557Z,24.4
2019-02-26T03:47:34.040Z,23.7
2019-02-26T03:57:33.242Z,22.4
2019-02-26T04:07:33.320Z,22.3
2019-02-26T04:17:33.555Z,24
2019-02-26T04:29:22.645Z,24.2
2019-02-26T04:39:22.376Z,23.3
2019-02-26T04:49:21.046Z,23.1
2019-02-26T04:59:20.246Z,22.5
2019-02-26T05:09:19.447Z,24.3
2019-02-26T05:19:21.250Z,24.4
2019-02-26T05:29:17.856Z,23.5
2019-02-26T05:39:18.660Z,22.7
2019-02-26T05:49:19.289Z,22.6
2019-02-26T05:59:17.806Z,22.9
2019-02-26T06:09:15.013Z,23.6
2019-02-26T06:19:15.785Z,24.9
2019-02-26T06:29:13.539Z,24.4
2019-02-26T06:39:12.740Z,24.1
2019-02-26T06:49:11.945Z,23.7
2019-02-26T06:59:12.219Z,24.1
2019-02-26T07:09:10.944Z,24
2019-02-26T07:19:11.512Z,23.9
2019-02-26T07:29:10.807Z,24.2
2019-02-26T07:39:07.958Z,24
2019-02-26T07:49:07.400Z,23.9
2019-02-26T07:59:07.730Z,23.8
2019-02-26T08:09:07.068Z,24
2019-02-26T08:19:05.927Z,24.4
2019-02-26T08:29:07.074Z,24.3
2019-02-26T08:39:04.339Z,23.9
2019-02-26T08:49:08.234Z,24.1
2019-02-26T08:59:03.597Z,24.7
2019-02-26T09:09:02.616Z,24.9
2019-02-26T09:19:01.158Z,24.9
2019-02-26T09:29:00.359Z,24.7
2019-02-26T09:38:59.612Z,24.4
2019-02-26T09:49:00.760Z,24.3
2019-02-26T09:58:58.017Z,24.1
2019-02-26T10:08:57.170Z,23.9
2019-02-26T10:18:56.824Z,24.3
2019-02-26T10:28:58.862Z,24.5
2019-02-26T10:38:55.534Z,24.1
2019-02-26T10:48:53.979Z,24
2019-02-26T10:58:55.408Z,23.5
2019-02-26T11:08:53.019Z,23.7
2019-02-26T11:18:51.592Z,23.8
2019-02-26T11:28:50.851Z,24.1
2019-02-26T11:38:49.998Z,25.3
2019-02-26T11:48:50.127Z,25.7
2019-02-26T11:58:48.404Z,24.9
2019-02-26T12:08:49.909Z,24.4
2019-02-26T12:18:47.049Z,24
2019-02-26T12:28:46.065Z,23.6
2019-02-26T12:38:47.145Z,23.3
2019-02-26T12:48:46.850Z,23.2
2019-02-26T12:58:45.030Z,23.4
2019-02-26T13:08:47.026Z,24.8
2019-02-26T13:19:58.759Z,25.8
2019-02-26T13:29:57.155Z,24.4
2019-02-26T13:41:17.458Z,24
2019-02-26T13:50:57.290Z,23.5
2019-02-26T14:00:56.367Z,23.1
2019-02-26T14:10:55.567Z,22.9
2019-02-26T14:20:54.720Z,23.2
2019-02-26T14:30:53.924Z,23.6
2019-02-26T14:40:53.128Z,23.4
2019-02-26T14:50:52.331Z,23.3
2019-02-26T15:00:57.541Z,23.2
2019-02-26T15:10:50.794Z,23.3
2019-02-26T15:20:49.943Z,23.1
2019-02-26T15:30:49.148Z,23.1
2019-02-26T15:40:48.352Z,23
2019-02-26T15:50:47.557Z,23
2019-02-26T16:00:46.809Z,23
2019-02-26T16:10:45.964Z,22.9
2019-02-26T16:20:45.171Z,22.9
2019-02-26T16:30:44.372Z,22.8
2019-02-26T16:40:43.579Z,22.8
2019-02-26T16:50:45.140Z,22.8
2019-02-26T17:00:42.033Z,22.8
2019-02-26T17:10:41.188Z,22.7
2019-02-26T17:20:40.442Z,22.8
2019-02-26T17:30:39.604Z,22.8
2019-02-26T17:40:38.805Z,23.1
2019-02-26T17:50:38.012Z,23.4
2019-02-26T18:00:37.246Z,23.6
2019-02-26T18:10:36.777Z,23.5
2019-02-26T18:20:35.620Z,23.9
2019-02-26T18:30:34.823Z,23.5
2019-02-26T18:40:34.026Z,23.3
2019-02-26T18:50:33.230Z,23.4
2019-02-26T19:00:32.441Z,23.6
2019-02-26T19:10:31.634Z,24.4
2019-02-26T19:20:30.868Z,24.8
2019-02-26T19:30:30.096Z,24.4
2019-02-26T19:40:30.372Z,22.9
2019-02-26T19:50:28.477Z,23.1
2019-02-26T20:00:27.660Z,23.2
2019-02-26T20:10:26.867Z,23.3
2019-02-26T20:20:26.119Z,23.7
2019-02-26T20:30:25.272Z,24.7
2019-02-26T20:40:24.476Z,24.1
2019-02-26T20:50:24.067Z,23.2
2019-02-26T21:00:25.203Z,22.9
2019-02-26T21:09:17.249Z,22.9
2019-02-26T21:19:15.173Z,23
2019-02-26T21:29:14.375Z,23.4
2019-02-26T21:39:13.577Z,23.7
2019-02-26T21:49:12.831Z,24.4
2019-02-26T21:59:11.984Z,24.6
2019-02-26T22:09:11.200Z,24.1
2019-02-26T22:19:10.485Z,22.7
2019-02-26T22:29:09.771Z,23.2
2019-02-26T22:39:09.057Z,23.3
2019-02-26T22:49:08.342Z,23.3
2019-02-26T22:59:08.411Z,23.8
2019-02-26T23:09:06.872Z,24.8
2019-02-26T23:19:06.071Z,24.5
2019-02-26T23:29:05.273Z,24.1
2019-02-26T23:39:04.476Z,22.8
2019-02-26T23:49:03.677Z,22.8
2019-02-26T23:59:04.107Z,23.2
